createdAt,value
2019-01-27T00:00:47.693Z,90.45
2019-01-27T00:01:47.820Z,90.44
2019-01-27T00:02:47.935Z,90.35
2019-01-27T00:03:47.502Z,90.12
2019-01-27T00:04:48.768Z,90.06
2019-01-27T00:05:47.624Z,90.14
2019-01-27T00:06:47.708Z,90.03
2019-01-27T00:07:47.712Z,90.05
2019-01-27T00:08:47.709Z,90.13
2019-01-27T00:09:47.615Z,90.07
2019-01-27T00:10:47.773Z,90.1
2019-01-27T00:11:47.676Z,90.03
2019-01-27T00:12:47.569Z,90.01
2019-01-27T00:13:47.652Z,90.08
2019-01-27T00:14:47.908Z,89.96
2019-01-27T00:15:47.540Z,89.86
2019-01-27T00:16:48.137Z,89.82
2019-01-27T00:17:47.538Z,89.78
2019-01-27T00:18:47.594Z,89.74
2019-01-27T00:19:47.598Z,89.69
2019-01-27T00:20:47.935Z,89.53
2019-01-27T00:21:47.613Z,89.37
2019-01-27T00:22:48.057Z,89.31
2019-01-27T00:23:49.328Z,89.38
2019-01-27T00:24:47.643Z,89.22
2019-01-27T00:25:47.777Z,89.02
2019-01-27T00:26:48.769Z,88.98
2019-01-27T00:27:47.767Z,88.84
2019-01-27T00:28:47.654Z,88.77
2019-01-27T00:29:47.563Z,88.82
2019-01-27T00:30:47.804Z,88.89
2019-01-27T00:31:47.503Z,88.78
2019-01-27T00:32:49.313Z,88.82
2019-01-27T00:33:47.519Z,88.91
2019-01-27T00:34:48.039Z,88.94
2019-01-27T00:35:47.508Z,88.84
2019-01-27T00:36:47.545Z,88.84
2019-01-27T00:37:47.588Z,88.89
2019-01-27T00:38:47.501Z,88.9
2019-01-27T00:39:47.527Z,88.91
2019-01-27T00:40:47.776Z,88.92
2019-01-27T00:41:47.534Z,88.98
2019-01-27T00:42:47.503Z,88.99
2019-01-27T00:43:47.506Z,88.99
2019-01-27T00:44:47.464Z,88.89
2019-01-27T00:46:47.821Z,88.74
2019-01-27T00:47:47.461Z,88.71
2019-01-27T00:48:47.467Z,88.67
2019-01-27T00:49:47.450Z,88.69
2019-01-27T00:50:47.550Z,88.71
2019-01-27T00:51:47.490Z,88.66
2019-01-27T00:52:47.524Z,88.69
2019-01-27T00:53:48.323Z,88.59
2019-01-27T00:54:48.288Z,88.51
2019-01-27T00:55:47.545Z,88.37
2019-01-27T00:56:47.594Z,88.32
2019-01-27T00:57:47.472Z,88.36
2019-01-27T00:58:47.642Z,88.46
2019-01-27T00:59:47.804Z,88.42
2019-01-27T01:00:47.657Z,88.44
2019-01-27T01:01:47.600Z,88.51
2019-01-27T01:02:47.506Z,88.46
2019-01-27T01:03:48.442Z,88.38
2019-01-27T01:04:47.723Z,88.42
2019-01-27T01:05:47.750Z,88.46
2019-01-27T01:06:47.573Z,88.45
2019-01-27T01:07:47.500Z,88.45
2019-01-27T01:08:47.480Z,88.37
2019-01-27T01:09:47.562Z,88.33
2019-01-27T01:10:47.438Z,88.37
2019-01-27T01:11:47.550Z,88.36
2019-01-27T01:12:47.524Z,88.36
2019-01-27T01:13:47.540Z,88.4
2019-01-27T01:14:47.623Z,88.39
2019-01-27T01:15:47.632Z,88.41
2019-01-27T01:16:47.563Z,88.46
2019-01-27T01:17:47.744Z,88.51
2019-01-27T01:18:47.829Z,88.38
2019-01-27T01:19:47.745Z,88.42
2019-01-27T01:20:47.460Z,88.4
2019-01-27T01:21:47.434Z,88.21
2019-01-27T01:22:47.552Z,88.01
2019-01-27T01:23:47.530Z,88.02
2019-01-27T01:24:47.681Z,87.97
2019-01-27T01:25:47.446Z,87.98
2019-01-27T01:26:47.414Z,87.89
2019-01-27T01:27:47.532Z,87.86
2019-01-27T01:28:47.694Z,87.95
2019-01-27T01:29:47.716Z,87.96
2019-01-27T01:30:47.912Z,87.93
2019-01-27T01:31:47.757Z,87.93
2019-01-27T01:32:47.398Z,88.01
2019-01-27T01:33:47.507Z,88.02
2019-01-27T01:34:48.150Z,87.85
2019-01-27T01:35:47.650Z,87.81
2019-01-27T01:36:47.664Z,87.78
2019-01-27T01:37:48.237Z,87.77
2019-01-27T01:38:47.856Z,87.61
2019-01-27T01:39:47.401Z,87.47
2019-01-27T01:40:48.193Z,87.4
2019-01-27T01:41:47.631Z,87.5
2019-01-27T01:42:47.688Z,87.56
2019-01-27T01:43:47.403Z,87.55
2019-01-27T01:44:49.199Z,87.53
2019-01-27T01:45:48.230Z,87.69
2019-01-27T01:46:47.453Z,87.97
2019-01-27T01:47:47.618Z,87.76
2019-01-27T01:48:47.831Z,87.65
2019-01-27T01:49:48.045Z,87.61
2019-01-27T01:50:47.665Z,87.55
2019-01-27T01:51:47.652Z,87.54
2019-01-27T01:52:47.778Z,87.45
2019-01-27T01:53:47.676Z,87.65
2019-01-27T01:54:47.193Z,87.66
2019-01-27T01:55:47.388Z,87.54
2019-01-27T01:56:47.579Z,87.64
2019-01-27T01:57:47.395Z,87.62
2019-01-27T01:58:47.728Z,87.71
2019-01-27T01:59:47.744Z,87.68
2019-01-27T02:00:47.438Z,87.72
2019-01-27T02:01:47.358Z,87.79
2019-01-27T02:02:49.183Z,87.8
2019-01-27T02:03:47.332Z,87.77
2019-01-27T02:04:47.337Z,87.73
2019-01-27T02:05:47.662Z,87.79
2019-01-27T02:06:47.369Z,87.86
2019-01-27T02:07:47.883Z,87.86
2019-01-27T02:08:47.474Z,87.96
2019-01-27T02:09:47.873Z,87.97
2019-01-27T02:10:47.432Z,87.85
2019-01-27T02:11:47.431Z,87.85
2019-01-27T02:12:47.973Z,87.89
2019-01-27T02:13:47.426Z,87.9
2019-01-27T02:14:47.619Z,87.88
2019-01-27T02:15:47.379Z,87.9
2019-01-27T02:16:47.462Z,88.02
2019-01-27T02:17:47.394Z,88.02
2019-01-27T02:18:47.395Z,88.09
2019-01-27T02:19:47.637Z,87.84
2019-01-27T02:20:47.335Z,87.86
2019-01-27T02:21:47.988Z,87.76
2019-01-27T02:22:47.465Z,87.84
2019-01-27T02:23:47.329Z,87.79
2019-01-27T02:24:47.418Z,87.84
2019-01-27T02:25:47.395Z,87.64
2019-01-27T02:26:47.391Z,87.54
2019-01-27T02:27:47.300Z,87.56
2019-01-27T02:28:47.325Z,87.58
2019-01-27T02:29:47.491Z,87.49
2019-01-27T02:30:47.515Z,87.05
2019-01-27T02:31:47.366Z,86.97
2019-01-27T02:32:47.441Z,87.09
2019-01-27T02:33:47.530Z,86.9
2019-01-27T02:34:47.875Z,86.94
2019-01-27T02:35:47.476Z,86.88
2019-01-27T02:36:47.471Z,86.85
2019-01-27T02:37:47.312Z,86.32
2019-01-27T02:38:47.665Z,86.26
2019-01-27T02:39:47.786Z,86.22
2019-01-27T02:40:48.095Z,85.95
2019-01-27T02:41:47.332Z,85.71
2019-01-27T02:42:47.611Z,85.69
2019-01-27T02:43:47.355Z,85.71
2019-01-27T02:44:47.523Z,85.69
2019-01-27T02:45:47.336Z,85.76
2019-01-27T02:46:47.629Z,85.77
2019-01-27T02:47:47.349Z,85.86
2019-01-27T02:48:47.342Z,85.63
2019-01-27T02:49:47.438Z,85.72
2019-01-27T02:50:47.426Z,85.69
2019-01-27T02:51:47.341Z,85.75
2019-01-27T02:52:47.889Z,85.84
2019-01-27T02:53:47.381Z,85.65
2019-01-27T02:54:47.324Z,85.46
2019-01-27T02:55:47.612Z,85.46
2019-01-27T02:56:47.580Z,85.03
2019-01-27T02:57:47.343Z,84.94
2019-01-27T02:58:47.328Z,85.04
2019-01-27T02:59:47.409Z,85.15
2019-01-27T03:00:47.486Z,84.99
2019-01-27T03:01:47.844Z,84.91
2019-01-27T03:02:48.153Z,84.78
2019-01-27T03:03:47.348Z,84.69
2019-01-27T03:04:47.764Z,84.64
2019-01-27T03:05:47.374Z,84.43
2019-01-27T03:06:47.560Z,84.57
2019-01-27T03:07:47.317Z,84.17
2019-01-27T03:08:49.103Z,83.88
2019-01-27T03:09:47.684Z,83.87
2019-01-27T03:10:47.341Z,83.71
2019-01-27T03:11:47.801Z,83.88
2019-01-27T03:12:47.259Z,83.92
2019-01-27T03:13:47.952Z,83.97
2019-01-27T03:14:47.344Z,84.01
2019-01-27T03:15:47.317Z,83.93
2019-01-27T03:16:47.317Z,83.78
2019-01-27T03:17:49.072Z,83.58
2019-01-27T03:18:47.255Z,83.4
2019-01-27T03:19:47.287Z,83.39
2019-01-27T03:20:49.063Z,83.51
2019-01-27T03:21:47.198Z,83.35
2019-01-27T03:22:47.319Z,83.5
2019-01-27T03:23:47.604Z,83.54
2019-01-27T03:24:47.601Z,83.67
2019-01-27T03:25:47.206Z,83.34
2019-01-27T03:26:47.493Z,83.41
2019-01-27T03:27:47.206Z,83.73
2019-01-27T03:28:47.275Z,84.08
2019-01-27T03:29:47.339Z,83.94
2019-01-27T03:30:47.221Z,83.7
2019-01-27T03:31:47.660Z,83.76
2019-01-27T03:32:47.588Z,83.53
2019-01-27T03:33:47.250Z,83.61
2019-01-27T03:34:47.475Z,83.18
2019-01-27T03:35:48.389Z,83.35
2019-01-27T03:36:47.371Z,83.54
2019-01-27T03:37:47.738Z,83.6
2019-01-27T03:38:47.498Z,83.69
2019-01-27T03:39:47.772Z,83.63
2019-01-27T03:40:47.257Z,83.73
2019-01-27T03:41:47.505Z,83.61
2019-01-27T03:42:48.522Z,83.56
2019-01-27T03:43:47.213Z,83.75
2019-01-27T03:44:47.382Z,83.82
2019-01-27T03:45:48.673Z,83.6
2019-01-27T03:46:47.594Z,83.64
2019-01-27T03:47:47.427Z,83.72
2019-01-27T03:48:47.624Z,83.87
2019-01-27T03:49:47.277Z,83.86
2019-01-27T03:50:47.914Z,83.9
2019-01-27T03:51:49.109Z,84.04
2019-01-27T03:52:47.412Z,84.06
2019-01-27T03:53:47.239Z,84.07
2019-01-27T03:54:47.201Z,83.99
2019-01-27T03:55:47.252Z,83.85
2019-01-27T03:56:47.182Z,83.9
2019-01-27T03:57:47.217Z,83.9
2019-01-27T03:58:47.272Z,83.94
2019-01-27T03:59:47.322Z,83.9
2019-01-27T04:00:47.600Z,83.99
2019-01-27T04:01:47.191Z,83.77
2019-01-27T04:02:47.537Z,83.74
2019-01-27T04:03:47.464Z,83.84
2019-01-27T04:04:47.265Z,83.89
2019-01-27T04:05:47.312Z,83.85
2019-01-27T04:06:47.228Z,83.94
2019-01-27T04:07:47.175Z,83.98
2019-01-27T04:08:47.209Z,84.07
2019-01-27T04:09:47.199Z,84.07
2019-01-27T04:10:47.285Z,84.17
2019-01-27T04:11:47.162Z,84.37
2019-01-27T04:12:47.196Z,84.45
2019-01-27T04:13:47.156Z,84.49
2019-01-27T04:14:47.307Z,84.03
2019-01-27T04:15:47.167Z,84.08
2019-01-27T04:16:47.270Z,84.43
2019-01-27T04:17:47.370Z,84.21
2019-01-27T04:18:47.211Z,84.45
2019-01-27T04:19:47.545Z,84.59
2019-01-27T04:20:47.226Z,85.01
2019-01-27T04:21:48.980Z,85.28
2019-01-27T04:22:47.267Z,85.2
2019-01-27T04:23:47.401Z,85.2
2019-01-27T04:24:47.846Z,85.46
2019-01-27T04:25:47.177Z,85.5
2019-01-27T04:26:47.929Z,85.71
2019-01-27T04:27:48.705Z,85.77
2019-01-27T04:28:47.126Z,85.9
2019-01-27T04:29:47.724Z,86.1
2019-01-27T04:30:47.412Z,86.09
2019-01-27T04:31:47.542Z,86.27
2019-01-27T04:32:47.537Z,86.43
2019-01-27T04:33:47.165Z,86.26
2019-01-27T04:34:47.133Z,86.41
2019-01-27T04:35:47.136Z,86.5
2019-01-27T04:36:47.119Z,86.65
2019-01-27T04:37:47.482Z,86.66
2019-01-27T04:38:47.105Z,86.87
2019-01-27T04:39:47.103Z,86.94
2019-01-27T04:40:47.190Z,86.99
2019-01-27T04:41:47.160Z,87.29
2019-01-27T04:42:47.171Z,87.27
2019-01-27T04:43:47.423Z,87.24
2019-01-27T04:44:47.170Z,87.49
2019-01-27T04:45:47.189Z,87.37
2019-01-27T04:46:47.187Z,87.35
2019-01-27T04:47:47.526Z,87.63
2019-01-27T04:48:47.679Z,87.62
2019-01-27T04:49:47.190Z,87.76
2019-01-27T04:50:48.949Z,87.73
2019-01-27T04:51:47.561Z,87.69
2019-01-27T04:52:47.186Z,87.82
2019-01-27T04:53:47.384Z,87.95
2019-01-27T04:54:47.397Z,87.95
2019-01-27T04:55:47.267Z,88.08
2019-01-27T04:56:48.229Z,88.03
2019-01-27T04:57:47.288Z,87.98
2019-01-27T04:58:47.332Z,88.12
2019-01-27T04:59:47.175Z,88.13
2019-01-27T05:00:47.266Z,88.42
2019-01-27T05:01:47.138Z,88.33
2019-01-27T05:02:47.132Z,88.39
2019-01-27T05:03:47.352Z,88.46
2019-01-27T05:04:47.175Z,88.42
2019-01-27T05:05:47.129Z,88.55
2019-01-27T05:06:47.159Z,88.68
2019-01-27T05:07:47.368Z,88.72
2019-01-27T05:08:47.144Z,88.84
2019-01-27T05:09:47.260Z,88.86
2019-01-27T05:10:47.203Z,88.94
2019-01-27T05:11:47.244Z,88.78
2019-01-27T05:12:47.215Z,88.74
2019-01-27T05:13:47.850Z,88.94
2019-01-27T05:14:47.163Z,88.91
2019-01-27T05:15:47.438Z,89.05
2019-01-27T05:16:47.954Z,88.89
2019-01-27T05:17:47.471Z,89.16
2019-01-27T05:18:47.209Z,89.03
2019-01-27T05:19:47.394Z,89.09
2019-01-27T05:20:47.228Z,89.03
2019-01-27T05:21:47.262Z,88.98
2019-01-27T05:22:47.298Z,89.05
2019-01-27T05:23:47.132Z,89.07
2019-01-27T05:24:47.714Z,89.04
2019-01-27T05:25:48.020Z,89.14
2019-01-27T05:26:47.038Z,88.99
2019-01-27T05:27:47.190Z,89.14
2019-01-27T05:28:47.073Z,89.22
2019-01-27T05:29:47.192Z,89.21
2019-01-27T05:30:47.066Z,89.29
2019-01-27T05:31:47.327Z,89.33
2019-01-27T05:32:47.353Z,89.39
2019-01-27T05:33:47.247Z,89.53
2019-01-27T05:34:47.223Z,89.52
2019-01-27T05:35:47.206Z,89.63
2019-01-27T05:36:47.373Z,89.75
2019-01-27T05:37:47.031Z,89.81
2019-01-27T05:38:47.183Z,89.84
2019-01-27T05:39:47.312Z,89.76
2019-01-27T05:40:47.084Z,89.56
2019-01-27T05:41:47.072Z,89.62
2019-01-27T05:42:47.097Z,89.79
2019-01-27T05:43:47.164Z,89.83
2019-01-27T05:44:47.109Z,89.85
2019-01-27T05:45:47.091Z,89.88
2019-01-27T05:46:47.518Z,89.95
2019-01-27T05:47:47.087Z,89.8
2019-01-27T05:48:47.379Z,89.72
2019-01-27T05:49:47.288Z,89.85
2019-01-27T05:50:47.000Z,89.84
2019-01-27T05:51:47.150Z,89.81
2019-01-27T05:52:47.067Z,89.97
2019-01-27T05:53:47.142Z,90.13
2019-01-27T05:54:47.136Z,90.1
2019-01-27T05:55:47.105Z,90.03
2019-01-27T05:56:47.258Z,89.96
2019-01-27T05:57:47.160Z,89.87
2019-01-27T05:58:47.735Z,89.86
2019-01-27T05:59:47.095Z,89.82
2019-01-27T06:00:46.777Z,89.89
2019-01-27T06:01:47.626Z,89.87
2019-01-27T06:02:47.055Z,89.86
2019-01-27T06:03:47.451Z,89.77
2019-01-27T06:04:47.044Z,89.65
2019-01-27T06:05:47.255Z,89.42
2019-01-27T06:06:47.149Z,89.51
2019-01-27T06:07:47.465Z,89.62
2019-01-27T06:08:47.920Z,89.45
2019-01-27T06:09:48.119Z,89.28
2019-01-27T06:10:47.088Z,89.46
2019-01-27T06:11:47.293Z,89.33
2019-01-27T06:12:47.599Z,89.15
2019-01-27T06:13:47.507Z,89.05
2019-01-27T06:14:47.375Z,89.1
2019-01-27T06:15:47.237Z,89
2019-01-27T06:16:47.219Z,89.09
2019-01-27T06:17:46.987Z,89.13
2019-01-27T06:18:47.232Z,88.94
2019-01-27T06:19:47.556Z,88.95
2019-01-27T06:20:47.080Z,88.9
2019-01-27T06:21:47.777Z,88.91
2019-01-27T06:22:47.028Z,88.78
2019-01-27T06:23:47.027Z,89.01
2019-01-27T06:24:47.588Z,89
2019-01-27T06:25:47.095Z,89.09
2019-01-27T06:26:47.195Z,88.9
2019-01-27T06:27:47.067Z,88.7
2019-01-27T06:28:47.066Z,88.65
2019-01-27T06:29:47.225Z,88.63
2019-01-27T06:30:47.530Z,88.63
2019-01-27T06:31:47.297Z,88.6
2019-01-27T06:32:48.314Z,88.46
2019-01-27T06:33:47.255Z,88.47
2019-01-27T06:34:47.033Z,88.39
2019-01-27T06:35:47.274Z,88.41
2019-01-27T06:36:47.162Z,88.62
2019-01-27T06:37:47.283Z,88.67
2019-01-27T06:38:47.171Z,88.72
2019-01-27T06:39:47.054Z,88.58
2019-01-27T06:40:47.191Z,88.54
2019-01-27T06:41:46.968Z,88.38
2019-01-27T06:42:47.050Z,88.5
2019-01-27T06:43:47.333Z,88.59
2019-01-27T06:44:47.216Z,88.43
2019-01-27T06:45:47.632Z,88.5
2019-01-27T06:46:47.090Z,88.44
2019-01-27T06:47:47.054Z,88.27
2019-01-27T06:48:47.348Z,88.34
2019-01-27T06:49:47.036Z,88.42
2019-01-27T06:50:47.149Z,88.47
2019-01-27T06:51:47.167Z,88.47
2019-01-27T06:52:47.036Z,88.25
2019-01-27T06:53:47.032Z,88.45
2019-01-27T06:54:47.171Z,88.24
2019-01-27T06:55:47.054Z,88.38
2019-01-27T06:56:46.891Z,88.33
2019-01-27T06:57:47.113Z,88.39
2019-01-27T06:58:47.064Z,88.48
2019-01-27T06:59:47.103Z,88.48
2019-01-27T07:00:46.913Z,88.34
2019-01-27T07:01:47.135Z,88.28
2019-01-27T07:02:47.217Z,88.19
2019-01-27T07:03:46.990Z,88.21
2019-01-27T07:04:47.249Z,88.26
2019-01-27T07:05:46.929Z,88.08
2019-01-27T07:06:47.167Z,88.14
2019-01-27T07:07:47.006Z,88.14
2019-01-27T07:08:46.934Z,88.08
2019-01-27T07:09:46.991Z,88.18
2019-01-27T07:10:47.295Z,88.12
2019-01-27T07:11:47.353Z,87.98
2019-01-27T07:12:47.422Z,88.04
2019-01-27T07:13:47.929Z,87.98
2019-01-27T07:14:47.108Z,88.02
2019-01-27T07:15:47.782Z,88.06
2019-01-27T07:16:47.035Z,88.11
2019-01-27T07:17:47.277Z,88.19
2019-01-27T07:18:47.203Z,88.21
2019-01-27T07:19:47.035Z,88.26
2019-01-27T07:20:47.352Z,88.23
2019-01-27T07:21:47.080Z,88.17
2019-01-27T07:22:46.886Z,88.17
2019-01-27T07:23:46.839Z,88.29
2019-01-27T07:24:47.304Z,88.22
2019-01-27T07:25:47.011Z,88.13
2019-01-27T07:26:46.971Z,88.09
2019-01-27T07:27:47.416Z,88.29
2019-01-27T07:28:47.119Z,88.31
2019-01-27T07:29:46.959Z,88.3
2019-01-27T07:30:47.030Z,88.36
2019-01-27T07:31:46.908Z,88.48
2019-01-27T07:32:46.885Z,88.33
2019-01-27T07:33:47.154Z,88.22
2019-01-27T07:34:46.875Z,88.38
2019-01-27T07:35:46.980Z,88.38
2019-01-27T07:36:47.014Z,88.34
2019-01-27T07:37:46.863Z,88.29
2019-01-27T07:38:47.074Z,88.29
2019-01-27T07:39:46.926Z,88.25
2019-01-27T07:40:47.292Z,88.19
2019-01-27T07:41:46.969Z,88.2
2019-01-27T07:42:48.717Z,88.18
2019-01-27T07:43:47.115Z,88.18
2019-01-27T07:44:47.649Z,88.03
2019-01-27T07:45:46.906Z,87.97
2019-01-27T07:46:46.875Z,87.99
2019-01-27T07:47:46.986Z,87.8
2019-01-27T07:48:46.847Z,87.8
2019-01-27T07:49:47.173Z,87.82
2019-01-27T07:50:47.004Z,87.78
2019-01-27T07:51:47.259Z,87.69
2019-01-27T07:52:46.832Z,87.86
2019-01-27T07:53:47.590Z,87.91
2019-01-27T07:54:47.341Z,87.94
2019-01-27T07:55:46.834Z,88.02
2019-01-27T07:56:47.099Z,87.93
2019-01-27T07:57:47.633Z,87.78
2019-01-27T07:58:46.814Z,87.73
2019-01-27T07:59:46.961Z,87.58
2019-01-27T08:00:46.902Z,87.39
2019-01-27T08:01:46.778Z,87.3
2019-01-27T08:02:46.876Z,87.21
2019-01-27T08:03:47.250Z,87.15
2019-01-27T08:04:47.216Z,87.21
2019-01-27T08:05:47.697Z,87.25
2019-01-27T08:06:46.924Z,87.27
2019-01-27T08:07:46.879Z,87.26
2019-01-27T08:08:46.820Z,87.26
2019-01-27T08:09:47.073Z,86.92
2019-01-27T08:10:46.840Z,86.49
2019-01-27T08:11:47.066Z,86.45
2019-01-27T08:12:46.979Z,86.45
2019-01-27T08:13:47.129Z,86.39
2019-01-27T08:14:46.911Z,86.33
2019-01-27T08:15:46.774Z,86.33
2019-01-27T08:16:46.801Z,86.43
2019-01-27T08:17:46.819Z,86.52
2019-01-27T08:18:47.088Z,86.49
2019-01-27T08:19:47.058Z,86.46
2019-01-27T08:20:47.056Z,86.36
2019-01-27T08:21:46.963Z,86.23
2019-01-27T08:22:47.046Z,86.07
2019-01-27T08:23:46.918Z,85.87
2019-01-27T08:24:47.703Z,85.67
2019-01-27T08:25:47.512Z,85.75
2019-01-27T08:26:46.843Z,85.6
2019-01-27T08:27:46.905Z,85.43
2019-01-27T08:28:46.886Z,85.32
2019-01-27T08:29:48.606Z,85.33
2019-01-27T08:30:46.757Z,85.48
2019-01-27T08:31:46.833Z,85.44
2019-01-27T08:32:46.873Z,85.28
2019-01-27T08:33:48.601Z,85.37
2019-01-27T08:34:47.244Z,85.18
2019-01-27T08:35:47.150Z,84.97
2019-01-27T08:36:47.123Z,84.91
2019-01-27T08:37:46.831Z,84.88
2019-01-27T08:39:46.923Z,84.89
2019-01-27T08:40:47.090Z,84.76
2019-01-27T08:41:47.046Z,84.8
2019-01-27T08:42:46.816Z,84.68
2019-01-27T08:43:47.112Z,84.66
2019-01-27T08:44:46.889Z,84.66
2019-01-27T08:45:46.777Z,84.81
2019-01-27T08:46:46.887Z,84.64
2019-01-27T08:47:47.039Z,84.66
2019-01-27T08:48:46.880Z,84.34
2019-01-27T08:49:46.846Z,84.53
2019-01-27T08:50:47.059Z,84.53
2019-01-27T08:51:47.066Z,84.57
2019-01-27T08:52:47.089Z,84.81
2019-01-27T08:53:48.518Z,84.66
2019-01-27T08:54:47.018Z,84.56
2019-01-27T08:55:46.775Z,84.39
2019-01-27T08:56:46.845Z,84.31
2019-01-27T08:57:46.840Z,84.06
2019-01-27T08:58:46.885Z,83.89
2019-01-27T08:59:47.018Z,83.6
2019-01-27T09:00:47.030Z,83.4
2019-01-27T09:01:46.880Z,83.01
2019-01-27T09:02:47.561Z,82.91
2019-01-27T09:03:46.793Z,82.5
2019-01-27T09:04:47.161Z,82.57
2019-01-27T09:05:46.706Z,82.73
2019-01-27T09:06:46.791Z,82.87
2019-01-27T09:07:46.829Z,82.44
2019-01-27T09:08:47.443Z,82.23
2019-01-27T09:09:47.589Z,82.53
2019-01-27T09:10:47.084Z,82.58
2019-01-27T09:11:47.105Z,82.69
2019-01-27T09:12:46.772Z,82.76
2019-01-27T09:13:47.276Z,82.82
2019-01-27T09:14:46.843Z,82.65
2019-01-27T09:15:46.734Z,82.66
2019-01-27T09:16:46.757Z,82.42
2019-01-27T09:17:46.694Z,82.64
2019-01-27T09:18:46.683Z,82.56
2019-01-27T09:19:47.252Z,82.77
2019-01-27T09:20:47.231Z,82.37
2019-01-27T09:21:46.735Z,82.14
2019-01-27T09:22:47.011Z,82.41
2019-01-27T09:23:46.774Z,82.19
2019-01-27T09:24:47.069Z,82.56
2019-01-27T09:25:47.211Z,82.48
2019-01-27T09:26:46.823Z,82.72
2019-01-27T09:27:46.855Z,82.72
2019-01-27T09:28:46.716Z,82.61
2019-01-27T09:29:46.716Z,82.18
2019-01-27T09:30:47.875Z,82.04
2019-01-27T09:31:46.899Z,82.05
2019-01-27T09:32:48.037Z,82.2
2019-01-27T09:34:02.832Z,81.48
2019-01-27T09:34:46.829Z,81.79
2019-01-27T09:35:47.646Z,82.25
2019-01-27T09:36:48.552Z,81.83
2019-01-27T09:37:47.894Z,81.88
2019-01-27T09:38:46.925Z,81.55
2019-01-27T09:39:46.855Z,81.46
2019-01-27T09:40:47.132Z,81.71
2019-01-27T09:41:46.879Z,81.84
2019-01-27T09:42:48.637Z,81.69
2019-01-27T09:43:47.230Z,81.88
2019-01-27T09:44:46.903Z,81.9
2019-01-27T09:46:11.668Z,82.02
2019-01-27T09:46:46.689Z,81.88
2019-01-27T09:47:46.681Z,81.99
2019-01-27T09:48:47.040Z,81.98
2019-01-27T09:49:46.803Z,81.77
2019-01-27T09:50:46.937Z,81.74
2019-01-27T09:51:47.007Z,81.61
2019-01-27T09:52:46.806Z,81.84
2019-01-27T09:53:46.966Z,81.83
2019-01-27T09:54:46.873Z,81.71
2019-01-27T09:56:46.904Z,80.98
2019-01-27T09:57:51.518Z,81.27
2019-01-27T09:58:46.710Z,80.22
2019-01-27T09:59:46.928Z,80.42
2019-01-27T10:00:46.932Z,80.57
2019-01-27T10:01:46.764Z,80.4
2019-01-27T10:02:46.637Z,80.75
2019-01-27T10:03:46.675Z,81.12
2019-01-27T10:04:46.708Z,81.43
2019-01-27T10:05:46.643Z,81.07
2019-01-27T10:06:46.933Z,80.53
2019-01-27T10:07:46.749Z,80.85
2019-01-27T10:08:46.685Z,81.28
2019-01-27T10:09:46.772Z,80.8
2019-01-27T10:10:46.775Z,80.66
2019-01-27T10:11:46.665Z,80.93
2019-01-27T10:12:46.638Z,80.93
2019-01-27T10:13:46.616Z,80.91
2019-01-27T10:14:46.719Z,81.28
2019-01-27T10:15:46.716Z,81.14
2019-01-27T10:16:46.688Z,81.14
2019-01-27T10:17:46.636Z,81.41
2019-01-27T10:18:47.265Z,81.49
2019-01-27T10:19:46.977Z,81.77
2019-01-27T10:20:46.750Z,82.04
2019-01-27T10:21:47.188Z,82.25
2019-01-27T10:22:46.920Z,82.36
2019-01-27T10:23:46.778Z,82.43
2019-01-27T10:24:46.777Z,82.6
2019-01-27T10:25:46.422Z,82.65
2019-01-27T10:26:46.644Z,82.97
2019-01-27T10:27:46.700Z,83.24
2019-01-27T10:28:46.624Z,83.56
2019-01-27T10:29:46.736Z,83.75
2019-01-27T10:30:46.666Z,84.1
2019-01-27T10:31:48.516Z,84.29
2019-01-27T10:32:46.686Z,84.45
2019-01-27T10:33:46.695Z,84.5
2019-01-27T10:34:46.651Z,84.74
2019-01-27T10:35:46.963Z,84.91
2019-01-27T10:36:46.869Z,85.31
2019-01-27T10:37:46.772Z,85.6
2019-01-27T10:38:46.795Z,85.58
2019-01-27T10:39:48.240Z,85.63
2019-01-27T10:40:46.722Z,85.79
2019-01-27T10:41:46.629Z,85.76
2019-01-27T10:42:46.946Z,85.75
2019-01-27T10:43:47.002Z,85.83
2019-01-27T10:44:46.620Z,86.17
2019-01-27T10:45:46.626Z,86.32
2019-01-27T10:46:46.583Z,86.1
2019-01-27T10:47:47.066Z,86.28
2019-01-27T10:48:46.629Z,86.27
2019-01-27T10:49:47.459Z,86.28
2019-01-27T10:50:46.903Z,86.22
2019-01-27T10:51:46.928Z,86.4
2019-01-27T10:52:46.680Z,86.2
2019-01-27T10:53:47.307Z,86.24
2019-01-27T10:54:46.565Z,86.42
2019-01-27T10:55:48.405Z,86.49
2019-01-27T10:56:46.598Z,86.64
2019-01-27T10:57:48.423Z,86.66
2019-01-27T10:58:46.815Z,86.73
2019-01-27T10:59:47.192Z,86.87
2019-01-27T11:00:46.363Z,86.94
2019-01-27T11:01:48.462Z,87.08
2019-01-27T11:02:49.807Z,86.83
2019-01-27T11:04:16.137Z,87.19
2019-01-27T11:04:48.981Z,87.14
2019-01-27T11:05:57.608Z,87.14
2019-01-27T11:06:50.388Z,87.15
2019-01-27T11:07:49.409Z,87.22
2019-01-27T11:08:53.525Z,87.12
2019-01-27T11:09:49.322Z,87.19
2019-01-27T11:10:54.711Z,87.15
2019-01-27T11:11:49.970Z,87.11
2019-01-27T11:12:52.822Z,87
2019-01-27T11:14:04.603Z,87.08
2019-01-27T11:15:52.561Z,87.16
2019-01-27T11:17:49.270Z,87.46
2019-01-27T11:19:01.457Z,87.61
2019-01-27T11:19:56.022Z,87.7
2019-01-27T11:20:46.658Z,87.71
2019-01-27T11:21:47.079Z,87.69
2019-01-27T11:22:46.787Z,87.5
2019-01-27T11:24:02.780Z,87.08
2019-01-27T11:24:46.711Z,86.87
2019-01-27T11:25:46.715Z,86.44
2019-01-27T11:26:46.585Z,86.25
2019-01-27T11:27:46.622Z,86.15
2019-01-27T11:28:46.509Z,85.93
2019-01-27T11:29:46.777Z,85.76
2019-01-27T11:30:46.851Z,85.65
2019-01-27T11:31:46.768Z,85.23
2019-01-27T11:32:46.537Z,85.14
2019-01-27T11:33:46.506Z,85.27
2019-01-27T11:34:46.849Z,84.71
2019-01-27T11:35:46.556Z,84.73
2019-01-27T11:36:46.636Z,84.09
2019-01-27T11:37:46.605Z,83.51
2019-01-27T11:38:46.538Z,82.83
2019-01-27T11:39:46.773Z,82.5
2019-01-27T11:40:46.520Z,82.23
2019-01-27T11:41:46.668Z,82.07
2019-01-27T11:42:46.613Z,82.51
2019-01-27T11:43:46.595Z,82.22
2019-01-27T11:44:46.558Z,81.8
2019-01-27T11:45:46.625Z,81.63
2019-01-27T11:46:47.075Z,80.7
2019-01-27T11:47:46.623Z,80.15
2019-01-27T11:48:46.546Z,80.77
2019-01-27T11:49:46.593Z,80.47
2019-01-27T11:50:46.540Z,80.97
2019-01-27T11:51:46.906Z,80.7
2019-01-27T11:52:46.919Z,80.56
2019-01-27T11:53:46.545Z,79.38
2019-01-27T11:54:46.665Z,79.49
2019-01-27T11:55:46.633Z,78.78
2019-01-27T11:56:52.910Z,78.71
2019-01-27T11:57:57.502Z,78.74
2019-01-27T11:58:46.548Z,78.66
2019-01-27T11:59:46.625Z,78.99
2019-01-27T12:00:46.492Z,78.85
2019-01-27T12:01:46.497Z,78.3
2019-01-27T12:02:47.085Z,77.2
2019-01-27T12:03:47.227Z,76.85
2019-01-27T12:04:46.690Z,76.63
2019-01-27T12:05:46.739Z,77.02
2019-01-27T12:06:46.680Z,76.46
2019-01-27T12:07:46.430Z,76.32
2019-01-27T12:08:46.692Z,76.46
2019-01-27T12:09:46.487Z,75.62
2019-01-27T12:10:46.556Z,75.69
2019-01-27T12:11:46.539Z,76.56
2019-01-27T12:12:46.726Z,75.74
2019-01-27T12:13:46.607Z,75.31
2019-01-27T12:14:46.602Z,73.85
2019-01-27T12:15:46.747Z,74.44
2019-01-27T12:16:46.662Z,75.02
2019-01-27T12:18:46.442Z,75
2019-01-27T12:19:46.561Z,74.94
2019-01-27T12:20:46.490Z,74.98
2019-01-27T12:21:46.712Z,74.67
2019-01-27T12:22:46.597Z,74.43
2019-01-27T12:23:46.448Z,74.94
2019-01-27T12:24:46.702Z,75
2019-01-27T12:25:46.524Z,74.51
2019-01-27T12:26:46.430Z,75.08
2019-01-27T12:27:46.716Z,75.07
2019-01-27T12:28:47.245Z,75.1
2019-01-27T12:29:46.664Z,74.35
2019-01-27T12:30:48.263Z,74.34
2019-01-27T12:31:47.105Z,74.89
2019-01-27T12:32:46.554Z,74.33
2019-01-27T12:33:46.904Z,74.01
2019-01-27T12:34:46.522Z,75
2019-01-27T12:35:46.528Z,73.51
2019-01-27T12:36:46.782Z,74.25
2019-01-27T12:37:46.566Z,74.18
2019-01-27T12:38:46.534Z,74.24
2019-01-27T12:39:47.082Z,74.06
2019-01-27T12:40:46.506Z,74.63
2019-01-27T12:41:46.430Z,75.17
2019-01-27T12:42:46.542Z,75.17
2019-01-27T12:43:46.607Z,74.61
2019-01-27T12:44:46.743Z,74.96
2019-01-27T12:45:46.717Z,73.53
2019-01-27T12:46:46.504Z,73.41
2019-01-27T12:47:46.703Z,74.04
2019-01-27T12:48:46.429Z,74.02
2019-01-27T12:49:46.441Z,74.09
2019-01-27T12:50:46.519Z,73.65
2019-01-27T12:51:46.626Z,73.6
2019-01-27T12:52:46.875Z,74.77
2019-01-27T12:53:46.826Z,74.62
2019-01-27T12:54:46.545Z,74.33
2019-01-27T12:55:47.269Z,74.58
2019-01-27T12:56:46.197Z,74.67
2019-01-27T12:57:46.540Z,75.16
2019-01-27T12:58:46.388Z,75.11
2019-01-27T12:59:46.942Z,75.15
2019-01-27T13:00:46.810Z,75.37
2019-01-27T13:01:48.225Z,75.86